Terminal Aerodrome Forecast
Issued by NWS Nashville, TN

Home | Current Version | Previous Version | Text Only | Print | Product List | Glossary On
Versions: 1 2 3 4 5 6 7 8 9 10 11 12 13 14 15 16 17 18 19 20 21 22 23 24 25 26 27 28 29 30 31 32
471
FTUS44 KOHX 242325
TAFBNA
TAF
KBNA 242325Z 2500/2524 VRB03KT P6SM BKN045
     FM250500 VRB03KT 4SM BR SCT015
     FM250900 00000KT 1/2SM FG VV003
     FM251400 18003KT 4SM BR BKN015
     FM251600 19006KT P6SM SCT040=

USA.gov is the U.S. government's official web portal to all federal, state and local government web resources and services.